sensor_id;sensor_type;location;lat;lon;timestamp;pressure;altitude;pressure_sealevel;temperature;humidity
1652;BME280;823;49.028;8.454;2023-02-19T00:04:55;101067.72;;;13.46;55.70
1652;BME280;823;49.028;8.454;2023-02-19T00:09:55;101076.81;;;13.06;57.02
1652;BME280;823;49.028;8.454;2023-02-19T00:14:55;101082.88;;;13.32;56.16
1652;BME280;823;49.028;8.454;2023-02-19T00:19:56;101064.91;;;13.52;55.72
1652;BME280;823;49.028;8.454;2023-02-19T00:24:56;101059.56;;;13.57;55.22
1652;BME280;823;49.028;8.454;2023-02-19T00:29:57;101032.94;;;13.50;55.78
1652;BME280;823;49.028;8.454;2023-02-19T00:34:57;101025.06;;;13.52;55.58
1652;BME280;823;49.028;8.454;2023-02-19T00:39:58;101039.59;;;13.57;55.52
1652;BME280;823;49.028;8.454;2023-02-19T00:44:58;101036.91;;;13.35;56.04
1652;BME280;823;49.028;8.454;2023-02-19T00:49:58;101030.28;;;13.52;55.71
1652;BME280;823;49.028;8.454;2023-02-19T00:54:58;101012.97;;;13.25;56.36
1652;BME280;823;49.028;8.454;2023-02-19T00:59:59;101042.19;;;13.57;55.46
1652;BME280;823;49.028;8.454;2023-02-19T01:04:59;101040.44;;;13.58;55.41
1652;BME280;823;49.028;8.454;2023-02-19T01:09:59;101057.63;;;13.62;55.17
1652;BME280;823;49.028;8.454;2023-02-19T01:15:00;101043.22;;;13.53;55.38
1652;BME280;823;49.028;8.454;2023-02-19T01:20:00;101040.44;;;13.58;55.13
1652;BME280;823;49.028;8.454;2023-02-19T01:25:00;101033.00;;;13.47;55.80
1652;BME280;823;49.028;8.454;2023-02-19T01:30:01;101034.59;;;13.51;55.66
1652;BME280;823;49.028;8.454;2023-02-19T01:35:01;101041.97;;;13.63;55.44
1652;BME280;823;49.028;8.454;2023-02-19T01:40:01;101055.63;;;13.45;55.57
1652;BME280;823;49.028;8.454;2023-02-19T01:50:21;101041.25;;;13.33;55.67
1652;BME280;823;49.028;8.454;2023-02-19T01:55:21;101032.88;;;13.25;56.08
1652;BME280;823;49.028;8.454;2023-02-19T02:00:22;101024.66;;;13.39;55.59
1652;BME280;823;49.028;8.454;2023-02-19T02:05:33;101010.06;;;13.33;55.86
1652;BME280;823;49.028;8.454;2023-02-19T02:10:35;100992.56;;;13.40;55.47
1652;BME280;823;49.028;8.454;2023-02-19T02:16:07;101013.09;;;13.21;55.87
1652;BME280;823;49.028;8.454;2023-02-19T02:21:21;101009.69;;;13.45;55.44
1652;BME280;823;49.028;8.454;2023-02-19T02:31:42;100996.31;;;13.31;55.81
1652;BME280;823;49.028;8.454;2023-02-19T02:36:49;100992.81;;;13.32;55.46
1652;BME280;823;49.028;8.454;2023-02-19T02:41:57;100997.31;;;13.27;55.54
1652;BME280;823;49.028;8.454;2023-02-19T02:47:16;101003.28;;;13.29;55.69
1652;BME280;823;49.028;8.454;2023-02-19T02:52:37;100989.94;;;13.15;56.20
1652;BME280;823;49.028;8.454;2023-02-19T02:57:58;100993.19;;;13.21;56.07
1652;BME280;823;49.028;8.454;2023-02-19T03:02:58;100977.59;;;13.21;56.11
1652;BME280;823;49.028;8.454;2023-02-19T03:08:24;100972.22;;;13.26;55.65
1652;BME280;823;49.028;8.454;2023-02-19T03:13:29;100965.28;;;13.01;56.59
1652;BME280;823;49.028;8.454;2023-02-19T03:18:53;100978.78;;;13.11;56.31
1652;BME280;823;49.028;8.454;2023-02-19T03:24:14;100971.81;;;12.88;57.38
1652;BME280;823;49.028;8.454;2023-02-19T03:29:36;100980.91;;;13.00;56.79
1652;BME280;823;49.028;8.454;2023-02-19T03:34:51;100983.38;;;13.04;56.58
1652;BME280;823;49.028;8.454;2023-02-19T03:39:53;100993.00;;;13.01;56.56
1652;BME280;823;49.028;8.454;2023-02-19T03:45:10;101002.44;;;13.03;56.85
1652;BME280;823;49.028;8.454;2023-02-19T03:50:19;101009.13;;;13.10;56.56
1652;BME280;823;49.028;8.454;2023-02-19T03:55:42;101012.19;;;12.97;57.26
1652;BME280;823;49.028;8.454;2023-02-19T04:01:02;101022.72;;;12.92;57.22
1652;BME280;823;49.028;8.454;2023-02-19T04:06:09;101026.31;;;12.88;57.91
1652;BME280;823;49.028;8.454;2023-02-19T04:11:13;101022.47;;;13.00;57.47
1652;BME280;823;49.028;8.454;2023-02-19T04:16:21;101026.22;;;12.91;58.10
1652;BME280;823;49.028;8.454;2023-02-19T04:21:24;101033.50;;;12.80;58.73
1652;BME280;823;49.028;8.454;2023-02-19T04:26:25;101024.56;;;12.88;58.77
1652;BME280;823;49.028;8.454;2023-02-19T04:31:27;101034.06;;;12.89;59.15
1652;BME280;823;49.028;8.454;2023-02-19T04:36:32;101040.38;;;12.81;59.01
1652;BME280;823;49.028;8.454;2023-02-19T04:41:33;101046.56;;;12.76;58.99
1652;BME280;823;49.028;8.454;2023-02-19T04:46:33;101045.16;;;12.94;58.46
1652;BME280;823;49.028;8.454;2023-02-19T04:51:33;101046.50;;;12.80;59.21
1652;BME280;823;49.028;8.454;2023-02-19T04:56:34;101055.66;;;12.63;59.71
1652;BME280;823;49.028;8.454;2023-02-19T05:01:34;101059.66;;;12.73;59.76
1652;BME280;823;49.028;8.454;2023-02-19T05:06:34;101052.28;;;12.59;60.58
1652;BME280;823;49.028;8.454;2023-02-19T05:11:35;101041.84;;;12.61;60.78
1652;BME280;823;49.028;8.454;2023-02-19T05:16:35;101044.75;;;12.52;61.12
1652;BME280;823;49.028;8.454;2023-02-19T05:21:36;101033.84;;;12.40;61.78
1652;BME280;823;49.028;8.454;2023-02-19T05:26:36;101045.91;;;12.41;62.02
1652;BME280;823;49.028;8.454;2023-02-19T05:31:36;101053.19;;;12.30;62.07
1652;BME280;823;49.028;8.454;2023-02-19T05:36:38;101049.59;;;12.34;62.37
1652;BME280;823;49.028;8.454;2023-02-19T05:41:38;101043.84;;;12.24;62.74
1652;BME280;823;49.028;8.454;2023-02-19T05:46:38;101049.50;;;12.37;62.16
1652;BME280;823;49.028;8.454;2023-02-19T05:51:39;101044.59;;;12.28;62.44
1652;BME280;823;49.028;8.454;2023-02-19T05:56:40;101046.91;;;12.37;62.20
1652;BME280;823;49.028;8.454;2023-02-19T06:01:41;101053.66;;;12.43;62.36
1652;BME280;823;49.028;8.454;2023-02-19T06:06:41;101063.69;;;12.25;62.44
1652;BME280;823;49.028;8.454;2023-02-19T06:11:42;101065.50;;;12.22;62.36
1652;BME280;823;49.028;8.454;2023-02-19T06:16:42;101077.16;;;12.38;61.75
1652;BME280;823;49.028;8.454;2023-02-19T06:21:42;101082.19;;;12.43;61.71
1652;BME280;823;49.028;8.454;2023-02-19T06:26:43;101082.13;;;12.46;61.66
1652;BME280;823;49.028;8.454;2023-02-19T06:31:44;101104.84;;;12.36;61.41
1652;BME280;823;49.028;8.454;2023-02-19T06:36:44;101111.59;;;12.43;61.41
1652;BME280;823;49.028;8.454;2023-02-19T06:41:44;101120.66;;;12.58;61.40
1652;BME280;823;49.028;8.454;2023-02-19T06:46:45;101119.44;;;12.70;60.82
1652;BME280;823;49.028;8.454;2023-02-19T06:51:45;101136.50;;;12.49;61.13
1652;BME280;823;49.028;8.454;2023-02-19T06:56:45;101142.47;;;12.51;61.11
1652;BME280;823;49.028;8.454;2023-02-19T07:01:46;101153.59;;;12.56;60.78
1652;BME280;823;49.028;8.454;2023-02-19T07:06:46;101148.06;;;12.37;61.10
1652;BME280;823;49.028;8.454;2023-02-19T07:11:46;101148.25;;;12.31;61.19
1652;BME280;823;49.028;8.454;2023-02-19T07:16:47;101151.03;;;12.55;60.46
1652;BME280;823;49.028;8.454;2023-02-19T07:21:47;101156.91;;;12.62;59.90
1652;BME280;823;49.028;8.454;2023-02-19T07:26:48;101160.78;;;12.76;59.20
1652;BME280;823;49.028;8.454;2023-02-19T07:31:48;101172.97;;;12.74;59.04
1652;BME280;823;49.028;8.454;2023-02-19T07:36:48;101171.44;;;12.67;59.02
1652;BME280;823;49.028;8.454;2023-02-19T07:41:49;101173.19;;;12.67;58.83
1652;BME280;823;49.028;8.454;2023-02-19T07:46:49;101182.22;;;12.53;59.04
1652;BME280;823;49.028;8.454;2023-02-19T07:51:49;101183.53;;;12.68;58.72
1652;BME280;823;49.028;8.454;2023-02-19T07:56:49;101187.81;;;12.69;58.92
1652;BME280;823;49.028;8.454;2023-02-19T08:01:50;101195.53;;;12.72;58.92
1652;BME280;823;49.028;8.454;2023-02-19T08:07:09;101205.25;;;12.66;59.39
1652;BME280;823;49.028;8.454;2023-02-19T08:12:10;101215.28;;;12.78;59.05
1652;BME280;823;49.028;8.454;2023-02-19T08:17:29;101222.56;;;12.95;58.74
1652;BME280;823;49.028;8.454;2023-02-19T08:22:30;101224.34;;;12.93;58.78
1652;BME280;823;49.028;8.454;2023-02-19T08:27:30;101236.78;;;13.11;58.09
1652;BME280;823;49.028;8.454;2023-02-19T08:32:30;101241.44;;;13.00;58.05
1652;BME280;823;49.028;8.454;2023-02-19T08:37:31;101246.81;;;13.24;57.52
1652;BME280;823;49.028;8.454;2023-02-19T08:42:31;101249.34;;;13.25;57.15
1652;BME280;823;49.028;8.454;2023-02-19T08:47:33;101240.53;;;13.31;56.79
1652;BME280;823;49.028;8.454;2023-02-19T08:52:34;101235.88;;;13.42;56.69
1652;BME280;823;49.028;8.454;2023-02-19T08:57:35;101240.75;;;13.23;56.93
1652;BME280;823;49.028;8.454;2023-02-19T09:02:36;101245.88;;;13.55;56.37
1652;BME280;823;49.028;8.454;2023-02-19T09:07:37;101254.28;;;13.63;55.71
1652;BME280;823;49.028;8.454;2023-02-19T09:12:37;101254.44;;;13.58;55.39
1652;BME280;823;49.028;8.454;2023-02-19T09:17:39;101260.25;;;13.65;55.43
1652;BME280;823;49.028;8.454;2023-02-19T09:22:39;101256.66;;;13.69;55.37
1652;BME280;823;49.028;8.454;2023-02-19T09:27:39;101259.38;;;13.66;55.39
1652;BME280;823;49.028;8.454;2023-02-19T09:32:40;101269.44;;;13.50;55.50
1652;BME280;823;49.028;8.454;2023-02-19T09:37:40;101286.88;;;13.73;54.75
1652;BME280;823;49.028;8.454;2023-02-19T09:42:41;101299.53;;;13.84;54.37
1652;BME280;823;49.028;8.454;2023-02-19T09:47:42;101312.19;;;13.95;54.48
1652;BME280;823;49.028;8.454;2023-02-19T09:52:57;101306.88;;;13.71;54.49
1652;BME280;823;49.028;8.454;2023-02-19T09:58:12;101307.53;;;13.78;54.27
1652;BME280;823;49.028;8.454;2023-02-19T10:03:25;101316.00;;;14.11;53.70
1652;BME280;823;49.028;8.454;2023-02-19T10:08:32;101318.22;;;13.97;53.46
1652;BME280;823;49.028;8.454;2023-02-19T10:13:35;101318.38;;;14.18;53.02
1652;BME280;823;49.028;8.454;2023-02-19T10:18:40;101323.31;;;14.00;53.18
1652;BME280;823;49.028;8.454;2023-02-19T10:23:41;101317.94;;;14.05;53.60
1652;BME280;823;49.028;8.454;2023-02-19T10:28:42;101307.38;;;14.09;53.08
1652;BME280;823;49.028;8.454;2023-02-19T10:38:51;101325.59;;;14.09;53.03
1652;BME280;823;49.028;8.454;2023-02-19T10:54:30;101329.84;;;13.85;53.38
1652;BME280;823;49.028;8.454;2023-02-19T10:59:31;101331.09;;;14.27;52.56
1652;BME280;823;49.028;8.454;2023-02-19T11:04:32;101345.25;;;14.45;51.79
1652;BME280;823;49.028;8.454;2023-02-19T11:09:37;101348.81;;;14.69;51.40
1652;BME280;823;49.028;8.454;2023-02-19T11:14:41;101339.56;;;14.59;50.63
1652;BME280;823;49.028;8.454;2023-02-19T11:19:43;101331.53;;;14.40;50.99
1652;BME280;823;49.028;8.454;2023-02-19T11:24:47;101340.69;;;14.52;50.59
1652;BME280;823;49.028;8.454;2023-02-19T11:29:49;101335.59;;;14.74;50.08
1652;BME280;823;49.028;8.454;2023-02-19T11:34:49;101341.75;;;14.96;49.18
1652;BME280;823;49.028;8.454;2023-02-19T11:39:50;101342.25;;;15.06;48.33
1652;BME280;823;49.028;8.454;2023-02-19T11:45:04;101348.72;;;15.20;48.26
1652;BME280;823;49.028;8.454;2023-02-19T12:00:39;101346.00;;;14.99;48.56
1652;BME280;823;49.028;8.454;2023-02-19T12:06:18;101344.72;;;15.11;48.44
1652;BME280;823;49.028;8.454;2023-02-19T12:53:38;101339.81;;;15.02;50.32
1652;BME280;823;49.028;8.454;2023-02-19T12:59:01;101332.97;;;15.23;49.84
1652;BME280;823;49.028;8.454;2023-02-19T13:09:27;101325.03;;;15.02;49.61
1652;BME280;823;49.028;8.454;2023-02-19T13:14:38;101316.78;;;15.38;49.26
1652;BME280;823;49.028;8.454;2023-02-19T13:19:41;101324.50;;;15.18;48.36
1652;BME280;823;49.028;8.454;2023-02-19T13:24:42;101321.38;;;15.54;47.63
1652;BME280;823;49.028;8.454;2023-02-19T13:35:34;101317.81;;;15.32;47.32
1652;BME280;823;49.028;8.454;2023-02-19T13:40:52;101323.56;;;15.19;47.23
1652;BME280;823;49.028;8.454;2023-02-19T13:46:04;101312.28;;;15.42;46.56
1652;BME280;823;49.028;8.454;2023-02-19T14:17:38;101306.91;;;15.23;47.72
1652;BME280;823;49.028;8.454;2023-02-19T14:27:44;101301.94;;;14.93;48.51
1652;BME280;823;49.028;8.454;2023-02-19T14:32:45;101308.75;;;14.97;49.06
1652;BME280;823;49.028;8.454;2023-02-19T14:37:45;101315.59;;;15.00;48.49
1652;BME280;823;49.028;8.454;2023-02-19T14:42:48;101330.09;;;15.07;48.53
1652;BME280;823;49.028;8.454;2023-02-19T14:47:51;101334.09;;;14.92;48.83
1652;BME280;823;49.028;8.454;2023-02-19T14:52:55;101340.91;;;14.96;48.31
1652;BME280;823;49.028;8.454;2023-02-19T14:57:59;101347.50;;;14.81;48.33
1652;BME280;823;49.028;8.454;2023-02-19T15:03:00;101359.50;;;14.85;47.80
1652;BME280;823;49.028;8.454;2023-02-19T15:08:13;101361.19;;;14.62;47.80
1652;BME280;823;49.028;8.454;2023-02-19T15:13:24;101366.38;;;14.62;48.24
1652;BME280;823;49.028;8.454;2023-02-19T15:18:26;101369.00;;;14.62;48.48
1652;BME280;823;49.028;8.454;2023-02-19T15:23:28;101379.50;;;14.58;48.78
1652;BME280;823;49.028;8.454;2023-02-19T15:28:32;101367.53;;;14.27;50.06
1652;BME280;823;49.028;8.454;2023-02-19T15:33:33;101390.19;;;14.50;49.55
1652;BME280;823;49.028;8.454;2023-02-19T15:38:34;101377.47;;;14.41;49.74
1652;BME280;823;49.028;8.454;2023-02-19T15:43:42;101389.75;;;14.37;50.01
1652;BME280;823;49.028;8.454;2023-02-19T15:49:04;101389.94;;;14.31;50.22
1652;BME280;823;49.028;8.454;2023-02-19T15:54:23;101393.44;;;14.30;50.11
1652;BME280;823;49.028;8.454;2023-02-19T15:59:26;101397.56;;;14.37;50.28
1652;BME280;823;49.028;8.454;2023-02-19T16:04:33;101398.31;;;14.41;50.44
1652;BME280;823;49.028;8.454;2023-02-19T16:09:38;101397.50;;;14.39;50.36
1652;BME280;823;49.028;8.454;2023-02-19T16:14:39;101399.84;;;14.20;50.71
1652;BME280;823;49.028;8.454;2023-02-19T16:24:51;101404.13;;;13.94;51.02
1652;BME280;823;49.028;8.454;2023-02-19T16:29:53;101401.69;;;14.16;50.65
1652;BME280;823;49.028;8.454;2023-02-19T16:34:53;101395.56;;;13.90;51.20
1652;BME280;823;49.028;8.454;2023-02-19T16:45:06;101376.63;;;14.13;50.68
1652;BME280;823;49.028;8.454;2023-02-19T16:50:12;101387.63;;;14.23;50.64
1652;BME280;823;49.028;8.454;2023-02-19T16:55:13;101389.44;;;13.93;51.55
1652;BME280;823;49.028;8.454;2023-02-19T17:00:18;101390.50;;;14.14;50.72
1652;BME280;823;49.028;8.454;2023-02-19T17:05:20;101400.97;;;14.12;50.85
1652;BME280;823;49.028;8.454;2023-02-19T17:10:23;101406.59;;;13.99;51.35
1652;BME280;823;49.028;8.454;2023-02-19T17:15:24;101416.63;;;14.09;50.92
1652;BME280;823;49.028;8.454;2023-02-19T17:20:28;101419.38;;;14.05;50.86
1652;BME280;823;49.028;8.454;2023-02-19T17:25:29;101421.94;;;14.06;50.81
1652;BME280;823;49.028;8.454;2023-02-19T17:30:31;101426.63;;;14.23;50.33
1652;BME280;823;49.028;8.454;2023-02-19T17:35:32;101434.00;;;14.09;50.35
1652;BME280;823;49.028;8.454;2023-02-19T17:40:33;101443.59;;;13.78;51.18
1652;BME280;823;49.028;8.454;2023-02-19T17:45:33;101454.09;;;14.05;50.65
1652;BME280;823;49.028;8.454;2023-02-19T17:50:33;101460.06;;;14.07;50.58
1652;BME280;823;49.028;8.454;2023-02-19T17:55:34;101466.72;;;14.16;50.18
1652;BME280;823;49.028;8.454;2023-02-19T18:00:34;101480.97;;;14.04;50.63
1652;BME280;823;49.028;8.454;2023-02-19T18:05:35;101489.53;;;14.08;50.78
1652;BME280;823;49.028;8.454;2023-02-19T18:10:35;101491.75;;;14.20;50.45
1652;BME280;823;49.028;8.454;2023-02-19T18:15:36;101484.94;;;14.16;50.20
1652;BME280;823;49.028;8.454;2023-02-19T18:20:36;101492.00;;;13.83;51.18
1652;BME280;823;49.028;8.454;2023-02-19T18:25:37;101502.91;;;13.95;51.08
1652;BME280;823;49.028;8.454;2023-02-19T18:30:37;101506.00;;;13.78;51.00
1652;BME280;823;49.028;8.454;2023-02-19T18:35:37;101512.94;;;13.78;51.03
1652;BME280;823;49.028;8.454;2023-02-19T18:40:38;101511.63;;;13.94;50.73
1652;BME280;823;49.028;8.454;2023-02-19T18:45:38;101526.28;;;13.97;50.56
1652;BME280;823;49.028;8.454;2023-02-19T18:50:39;101536.59;;;14.00;50.59
1652;BME280;823;49.028;8.454;2023-02-19T18:55:39;101539.28;;;13.97;50.45
1652;BME280;823;49.028;8.454;2023-02-19T19:00:39;101554.31;;;13.86;50.83
1652;BME280;823;49.028;8.454;2023-02-19T19:05:39;101561.88;;;13.95;50.77
1652;BME280;823;49.028;8.454;2023-02-19T19:10:40;101557.31;;;13.72;51.11
1652;BME280;823;49.028;8.454;2023-02-19T19:15:40;101565.56;;;13.88;50.50
1652;BME280;823;49.028;8.454;2023-02-19T19:20:40;101562.13;;;13.86;50.59
1652;BME280;823;49.028;8.454;2023-02-19T19:25:41;101561.16;;;13.90;50.50
1652;BME280;823;49.028;8.454;2023-02-19T19:30:41;101563.34;;;13.74;50.90
1652;BME280;823;49.028;8.454;2023-02-19T19:35:41;101568.88;;;13.93;50.40
1652;BME280;823;49.028;8.454;2023-02-19T19:40:42;101563.44;;;14.01;50.28
1652;BME280;823;49.028;8.454;2023-02-19T19:45:42;101572.38;;;13.92;50.52
1652;BME280;823;49.028;8.454;2023-02-19T19:50:42;101578.38;;;13.94;50.31
1652;BME280;823;49.028;8.454;2023-02-19T19:55:43;101570.06;;;13.81;50.74
1652;BME280;823;49.028;8.454;2023-02-19T20:00:43;101562.75;;;13.94;50.25
1652;BME280;823;49.028;8.454;2023-02-19T20:05:44;101574.25;;;13.87;50.74
1652;BME280;823;49.028;8.454;2023-02-19T20:10:49;101567.38;;;13.84;50.92
1652;BME280;823;49.028;8.454;2023-02-19T20:15:50;101566.63;;;13.81;50.88
1652;BME280;823;49.028;8.454;2023-02-19T20:20:51;101577.34;;;13.68;51.17
1652;BME280;823;49.028;8.454;2023-02-19T20:25:51;101568.03;;;13.61;51.24
1652;BME280;823;49.028;8.454;2023-02-19T20:30:51;101571.59;;;13.57;51.13
1652;BME280;823;49.028;8.454;2023-02-19T20:35:52;101575.47;;;13.73;50.96
1652;BME280;823;49.028;8.454;2023-02-19T20:40:52;101575.81;;;13.61;51.46
1652;BME280;823;49.028;8.454;2023-02-19T20:45:53;101574.19;;;13.57;51.71
1652;BME280;823;49.028;8.454;2023-02-19T20:50:53;101583.56;;;13.62;51.79
1652;BME280;823;49.028;8.454;2023-02-19T20:55:58;101577.41;;;13.65;52.04
1652;BME280;823;49.028;8.454;2023-02-19T21:00:59;101592.97;;;13.68;51.76
1652;BME280;823;49.028;8.454;2023-02-19T21:05:59;101588.97;;;13.55;52.24
1652;BME280;823;49.028;8.454;2023-02-19T21:10:59;101594.47;;;13.42;52.38
1652;BME280;823;49.028;8.454;2023-02-19T21:16:00;101596.03;;;13.50;52.07
1652;BME280;823;49.028;8.454;2023-02-19T21:21:00;101598.63;;;13.50;52.36
1652;BME280;823;49.028;8.454;2023-02-19T21:26:01;101600.94;;;13.60;51.78
1652;BME280;823;49.028;8.454;2023-02-19T21:31:01;101581.03;;;13.61;52.13
1652;BME280;823;49.028;8.454;2023-02-19T21:36:03;101575.53;;;13.39;52.40
1652;BME280;823;49.028;8.454;2023-02-19T21:41:04;101559.75;;;13.45;52.37
1652;BME280;823;49.028;8.454;2023-02-19T21:46:04;101572.47;;;13.56;51.94
1652;BME280;823;49.028;8.454;2023-02-19T21:51:04;101573.22;;;13.59;51.77
1652;BME280;823;49.028;8.454;2023-02-19T21:56:05;101573.53;;;13.49;52.15
1652;BME280;823;49.028;8.454;2023-02-19T22:01:05;101574.47;;;13.46;52.07
1652;BME280;823;49.028;8.454;2023-02-19T22:06:06;101586.88;;;13.35;52.17
1652;BME280;823;49.028;8.454;2023-02-19T22:11:06;101597.91;;;13.43;52.21
1652;BME280;823;49.028;8.454;2023-02-19T22:16:06;101604.91;;;13.41;52.07
1652;BME280;823;49.028;8.454;2023-02-19T22:21:07;101604.91;;;13.41;51.87
1652;BME280;823;49.028;8.454;2023-02-19T22:26:07;101610.91;;;13.44;51.88
1652;BME280;823;49.028;8.454;2023-02-19T22:31:07;101611.78;;;13.43;52.01
1652;BME280;823;49.028;8.454;2023-02-19T22:36:28;101604.69;;;13.50;51.68
1652;BME280;823;49.028;8.454;2023-02-19T22:41:33;101609.97;;;13.45;51.73
1652;BME280;823;49.028;8.454;2023-02-19T22:46:33;101609.19;;;13.43;51.73
1652;BME280;823;49.028;8.454;2023-02-19T22:51:34;101618.88;;;13.37;51.89
1652;BME280;823;49.028;8.454;2023-02-19T22:56:34;101617.88;;;13.42;51.77
1652;BME280;823;49.028;8.454;2023-02-19T23:01:35;101621.34;;;13.41;51.91
1652;BME280;823;49.028;8.454;2023-02-19T23:06:35;101621.34;;;13.41;51.87
1652;BME280;823;49.028;8.454;2023-02-19T23:11:36;101620.63;;;13.36;51.81
1652;BME280;823;49.028;8.454;2023-02-19T23:16:38;101620.22;;;13.16;52.11
1652;BME280;823;49.028;8.454;2023-02-19T23:21:39;101631.38;;;13.19;51.99
1652;BME280;823;49.028;8.454;2023-02-19T23:26:46;101635.34;;;12.98;52.55
1652;BME280;823;49.028;8.454;2023-02-19T23:31:47;101631.00;;;13.00;52.41
1652;BME280;823;49.028;8.454;2023-02-19T23:36:49;101642.69;;;12.79;52.96
1652;BME280;823;49.028;8.454;2023-02-19T23:41:51;101642.09;;;12.68;53.56
1652;BME280;823;49.028;8.454;2023-02-19T23:46:52;101635.09;;;12.71;53.15
1652;BME280;823;49.028;8.454;2023-02-19T23:51:52;101649.53;;;12.42;54.13
1652;BME280;823;49.028;8.454;2023-02-19T23:56:54;101642.56;;;12.46;53.87
